Time;durP1;ratioP1;P1;durP2;ratioP2;P2;SDS_P1;SDS_P2;PMS_P1;PMS_P2;Temp;Humidity;BMP_temperature;BMP_pressure;BME280_temperature;BME280_humidity;BME280_pressure;Samples;Min_cycle;Max_cycle;Signal;HPM_P1;HPM_P2
2023/05/09 00:00:25;;;;;;;0.20;0.20;;;;;;;16.99;100.00;100571.97;5119256;27;20114;-63
2023/05/09 00:02:50;;;;;;;0.00;0.00;;;;;;;16.92;100.00;100571.25;5120794;27;20027;-64
2023/05/09 00:05:16;;;;;;;0.00;0.00;;;;;;;17.02;100.00;100559.97;5120778;27;20641;-65
2023/05/09 00:07:41;;;;;;;0.10;0.10;;;;;;;17.09;100.00;100557.16;5114902;27;20039;-64
2023/05/09 00:10:07;;;;;;;0.40;0.10;;;;;;;17.03;100.00;100560.78;5118041;27;20033;-65
2023/05/09 00:12:32;;;;;;;0.20;0.00;;;;;;;17.00;100.00;100559.38;5117412;27;20069;-66
2023/05/09 00:14:58;;;;;;;0.55;0.00;;;;;;;17.05;100.00;100556.00;5120763;27;20031;-65
2023/05/09 00:17:23;;;;;;;0.20;0.00;;;;;;;17.10;100.00;100548.91;5117227;27;20024;-66
2023/05/09 00:19:50;;;;;;;0.10;0.00;;;;;;;17.13;100.00;100548.44;5120698;27;20510;-66
2023/05/09 00:22:16;;;;;;;0.28;0.00;;;;;;;17.17;100.00;100554.97;5114505;27;20039;-65
2023/05/09 00:24:42;;;;;;;2.47;0.13;;;;;;;17.15;100.00;100550.88;5113263;27;20071;-65
2023/05/09 00:27:08;;;;;;;0.00;0.00;;;;;;;17.18;100.00;100548.56;5112347;27;20031;-64
2023/05/09 00:29:34;;;;;;;0.20;0.00;;;;;;;17.16;100.00;100537.25;5117033;27;21119;-64
2023/05/09 00:31:59;;;;;;;0.32;0.10;;;;;;;17.16;100.00;100542.59;5116383;27;20035;-63
2023/05/09 00:34:24;;;;;;;0.00;0.00;;;;;;;17.11;100.00;100533.63;5113777;27;20031;-64
2023/05/09 00:36:50;;;;;;;0.10;0.00;;;;;;;17.20;100.00;100530.38;5117635;27;20027;-65
2023/05/09 00:39:15;;;;;;;0.00;0.00;;;;;;;17.14;100.00;100531.31;5120881;27;20113;-65
2023/05/09 00:41:41;;;;;;;0.00;0.00;;;;;;;17.21;100.00;100529.31;5113754;27;20019;-64
2023/05/09 00:44:07;;;;;;;0.20;0.00;;;;;;;17.22;100.00;100522.13;5121126;27;20398;-64
2023/05/09 00:46:33;;;;;;;0.30;0.20;;;;;;;17.22;100.00;100520.25;5123475;27;20040;-65
2023/05/09 00:48:58;;;;;;;0.00;0.00;;;;;;;17.26;100.00;100519.78;5118448;27;20029;-64
2023/05/09 00:51:24;;;;;;;2.40;0.00;;;;;;;17.29;100.00;100513.94;5113058;27;20023;-63
2023/05/09 00:53:50;;;;;;;0.00;0.00;;;;;;;17.23;100.00;100515.72;5118074;27;20430;-64
2023/05/09 00:56:16;;;;;;;0.00;0.00;;;;;;;17.18;100.00;100515.59;5108999;27;20042;-64
2023/05/09 00:58:41;;;;;;;0.00;0.00;;;;;;;17.32;100.00;100513.47;5118484;27;20027;-63
2023/05/09 01:01:07;;;;;;;0.28;0.00;;;;;;;17.38;100.00;100508.00;5116208;27;20023;-65
2023/05/09 01:03:34;;;;;;;0.00;0.00;;;;;;;17.43;100.00;100505.44;5118104;27;20034;-62
2023/05/09 01:05:59;;;;;;;0.10;0.00;;;;;;;17.32;100.00;100508.13;5120436;27;20050;-63
2023/05/09 01:08:42;;;;;;;0.00;0.00;;;;;;;17.29;100.00;100511.28;5120153;27;20031;-63
2023/05/09 01:11:17;;;;;;;0.00;0.00;;;;;;;17.24;100.00;100509.28;5119238;27;20077;-63
2023/05/09 01:14:24;;;;;;;0.15;0.00;;;;;;;17.19;100.00;100518.06;5116790;27;20287;-63
2023/05/09 01:17:00;;;;;;;0.00;0.00;;;;;;;17.14;100.00;100517.94;5123358;27;20396;-63
2023/05/09 01:19:41;;;;;;;0.65;0.47;;;;;;;16.97;100.00;100514.31;5115924;27;20031;-58
2023/05/09 01:22:08;;;;;;;0.00;0.00;;;;;;;16.88;100.00;100513.00;5117607;27;20698;-62
2023/05/09 01:24:43;;;;;;;0.00;0.00;;;;;;;16.74;100.00;100513.22;5123087;27;20047;-57
2023/05/09 01:27:21;;;;;;;0.00;0.00;;;;;;;16.72;100.00;100507.25;5112779;27;20085;-61
2023/05/09 01:29:56;;;;;;;0.00;0.00;;;;;;;16.65;100.00;100503.91;5113538;27;20043;-62
2023/05/09 01:32:26;;;;;;;0.00;0.00;;;;;;;16.70;100.00;100496.00;5104349;28;20075;-62
2023/05/09 01:34:54;;;;;;;0.00;0.00;;;;;;;16.62;100.00;100498.16;5115920;27;20031;-60
2023/05/09 01:37:28;;;;;;;0.10;0.00;;;;;;;16.67;100.00;100506.31;5115447;27;20035;-62
2023/05/09 01:39:56;;;;;;;0.00;0.00;;;;;;;16.76;100.00;100504.94;5106196;27;20024;-60
2023/05/09 01:42:25;;;;;;;0.10;0.03;;;;;;;16.83;100.00;100500.34;5119319;27;20490;-60
2023/05/09 01:44:53;;;;;;;0.00;0.00;;;;;;;16.99;100.00;100499.63;5119794;27;20125;-60
2023/05/09 01:47:22;;;;;;;0.00;0.00;;;;;;;17.02;100.00;100503.72;5120045;27;20492;-60
2023/05/09 01:49:48;;;;;;;0.00;0.00;;;;;;;16.94;100.00;100501.41;5119605;27;20023;-61
2023/05/09 01:52:19;;;;;;;0.00;0.00;;;;;;;16.79;100.00;100499.97;5119623;27;20023;-59
2023/05/09 01:54:45;;;;;;;0.00;0.00;;;;;;;16.88;100.00;100489.75;5116139;27;20027;-59
2023/05/09 01:57:11;;;;;;;0.73;0.00;;;;;;;16.90;100.00;100497.53;5122240;27;20388;-59
2023/05/09 01:59:43;;;;;;;0.00;0.00;;;;;;;16.83;100.00;100503.03;5118698;27;20019;-61
2023/05/09 02:02:09;;;;;;;0.00;0.00;;;;;;;16.74;100.00;100504.38;5123728;27;20034;-63
2023/05/09 02:04:35;;;;;;;0.90;0.00;;;;;;;16.65;100.00;100503.91;5116908;27;20023;-63
2023/05/09 02:07:01;;;;;;;7.10;1.08;;;;;;;16.67;100.00;100496.44;5110997;27;20027;-58
2023/05/09 02:09:26;;;;;;;0.00;0.00;;;;;;;16.05;100.00;100495.91;5125326;27;20418;-62
2023/05/09 02:11:53;;;;;;;0.47;0.00;;;;;;;15.98;100.00;100497.84;5124522;27;20035;-62
2023/05/09 02:14:18;;;;;;;0.00;0.00;;;;;;;16.07;100.00;100500.00;5114348;27;20142;-63
2023/05/09 02:16:43;;;;;;;0.00;0.00;;;;;;;15.98;100.00;100503.19;5127434;27;20035;-60
2023/05/09 02:19:09;;;;;;;2.00;0.20;;;;;;;16.01;100.00;100505.44;5117045;27;20138;-63
2023/05/09 02:21:35;;;;;;;5.03;0.00;;;;;;;16.01;100.00;100503.59;5122908;27;20118;-63
2023/05/09 02:24:00;;;;;;;0.30;0.03;;;;;;;15.99;100.00;100507.53;5113575;27;20099;-62
2023/05/09 02:26:27;;;;;;;2.08;0.15;;;;;;;15.91;100.00;100503.31;5117608;27;20065;-64
2023/05/09 02:28:54;;;;;;;0.00;0.00;;;;;;;15.87;100.00;100505.59;5113334;27;20051;-62
2023/05/09 02:31:22;;;;;;;0.45;0.10;;;;;;;15.76;100.00;100517.06;5115078;27;20086;-60
2023/05/09 02:33:49;;;;;;;0.10;0.03;;;;;;;15.83;100.00;100512.44;5117170;27;20031;-62
2023/05/09 02:36:15;;;;;;;1.40;0.00;;;;;;;15.90;100.00;100507.00;5111308;27;20042;-63
2023/05/09 02:38:41;;;;;;;0.10;0.00;;;;;;;15.80;100.00;100506.72;5113716;27;20023;-60
2023/05/09 02:41:11;;;;;;;0.00;0.00;;;;;;;15.72;100.00;100509.69;5111439;27;20030;-61
2023/05/09 02:43:37;;;;;;;0.00;0.00;;;;;;;15.80;100.00;100502.22;5115149;27;20080;-60
2023/05/09 02:46:02;;;;;;;0.00;0.00;;;;;;;15.81;100.00;100509.19;5123588;27;20063;-62
2023/05/09 02:48:28;;;;;;;0.10;0.10;;;;;;;15.79;100.00;100497.88;5119442;27;20087;-62
2023/05/09 02:50:53;;;;;;;0.30;0.00;;;;;;;15.81;100.00;100495.00;5116568;27;20487;-56
2023/05/09 02:53:19;;;;;;;0.57;0.00;;;;;;;15.79;100.00;100505.09;5119219;27;20023;-61
2023/05/09 02:55:44;;;;;;;0.10;0.10;;;;;;;15.81;100.00;100503.84;5117078;27;20031;-63
2023/05/09 02:58:09;;;;;;;0.95;0.70;;;;;;;15.83;100.00;100506.28;5116021;27;20031;-64
2023/05/09 03:00:35;;;;;;;0.45;0.43;;;;;;;15.84;100.00;100498.03;5117703;27;20023;-64
2023/05/09 03:03:01;;;;;;;0.55;0.20;;;;;;;15.82;100.00;100496.63;5117011;27;20056;-64
2023/05/09 03:05:26;;;;;;;1.88;0.13;;;;;;;15.75;100.00;100498.56;5113556;27;20379;-64
2023/05/09 03:07:51;;;;;;;0.10;0.10;;;;;;;15.77;100.00;100505.31;5113840;27;20037;-65
2023/05/09 03:10:17;;;;;;;1.65;0.20;;;;;;;15.82;100.00;100505.47;5118497;27;20035;-64
2023/05/09 03:12:42;;;;;;;0.20;0.17;;;;;;;15.83;100.00;100508.97;5118597;27;20034;-65
2023/05/09 03:15:08;;;;;;;0.45;0.20;;;;;;;15.88;100.00;100509.94;5119413;27;20037;-64
2023/05/09 03:17:34;;;;;;;0.45;0.10;;;;;;;15.94;100.00;100505.53;5125181;27;20509;-65
2023/05/09 03:19:59;;;;;;;0.25;0.20;;;;;;;16.02;100.00;100499.06;5117426;27;20039;-65
2023/05/09 03:22:25;;;;;;;0.32;0.32;;;;;;;15.98;100.00;100498.69;5119229;27;20039;-65
2023/05/09 03:24:50;;;;;;;1.42;0.38;;;;;;;16.09;100.00;100495.25;5122159;27;20031;-65
2023/05/09 03:27:15;;;;;;;0.60;0.15;;;;;;;16.18;100.00;100486.91;5119268;27;20028;-65
2023/05/09 03:29:41;;;;;;;0.43;0.20;;;;;;;16.11;100.00;100479.78;5119722;27;20363;-66
2023/05/09 03:32:07;;;;;;;0.93;0.50;;;;;;;16.14;100.00;100473.16;5111847;27;20570;-65
2023/05/09 03:34:32;;;;;;;0.40;0.15;;;;;;;16.09;100.00;100470.38;5128391;27;20195;-66
2023/05/09 03:36:58;;;;;;;0.28;0.25;;;;;;;16.04;100.00;100470.22;5117993;27;20028;-66
2023/05/09 03:39:23;;;;;;;0.20;0.20;;;;;;;16.01;100.00;100471.50;5113226;27;20490;-66
2023/05/09 03:41:49;;;;;;;0.63;0.30;;;;;;;15.85;100.00;100464.94;5119698;27;20038;-66
2023/05/09 03:44:14;;;;;;;0.75;0.75;;;;;;;15.85;100.00;100467.59;5116022;27;20078;-66
2023/05/09 03:46:40;;;;;;;0.20;0.20;;;;;;;15.77;100.00;100465.22;5121239;27;20043;-66
2023/05/09 03:49:05;;;;;;;0.30;0.30;;;;;;;15.68;100.00;100467.38;5122499;27;20019;-66
2023/05/09 03:51:31;;;;;;;1.85;0.47;;;;;;;15.77;100.00;100462.53;5113625;27;20468;-66
2023/05/09 03:53:57;;;;;;;1.55;0.57;;;;;;;15.71;100.00;100458.09;5121901;27;20019;-65
2023/05/09 03:56:22;;;;;;;0.15;0.15;;;;;;;15.66;100.00;100469.44;5122051;27;20080;-65
2023/05/09 03:58:47;;;;;;;0.77;0.20;;;;;;;15.53;100.00;100460.78;5120801;27;20031;-66
2023/05/09 04:01:14;;;;;;;0.10;0.10;;;;;;;15.61;100.00;100449.78;5120074;27;20027;-66
2023/05/09 04:03:40;;;;;;;0.20;0.20;;;;;;;15.62;100.00;100451.44;5114604;27;20038;-64
2023/05/09 04:06:05;;;;;;;0.47;0.40;;;;;;;15.56;100.00;100454.97;5114924;27;20019;-65
2023/05/09 04:08:31;;;;;;;0.40;0.40;;;;;;;15.60;100.00;100446.28;5118486;27;20395;-65
2023/05/09 04:10:56;;;;;;;1.63;0.70;;;;;;;15.68;100.00;100445.16;5114766;27;20072;-66
2023/05/09 04:13:22;;;;;;;0.22;0.20;;;;;;;15.59;100.00;100455.38;5118776;27;20035;-65
2023/05/09 04:15:47;;;;;;;0.40;0.30;;;;;;;15.63;100.00;100453.84;5118403;27;20404;-64
2023/05/09 04:18:12;;;;;;;0.63;0.40;;;;;;;15.60;100.00;100445.47;5116084;27;20033;-65
2023/05/09 04:20:38;;;;;;;0.38;0.35;;;;;;;15.56;100.00;100449.63;5116382;27;20042;-66
2023/05/09 04:23:03;;;;;;;0.80;0.40;;;;;;;15.52;100.00;100453.81;5121575;27;20146;-64
2023/05/09 04:25:30;;;;;;;0.80;0.55;;;;;;;15.66;100.00;100455.25;5105034;27;20027;-64
2023/05/09 04:27:56;;;;;;;0.60;0.60;;;;;;;15.62;100.00;100446.09;5116613;27;20023;-65
2023/05/09 04:30:22;;;;;;;0.63;0.63;;;;;;;15.51;100.00;100444.16;5121790;27;20027;-64
2023/05/09 04:32:47;;;;;;;1.60;1.23;;;;;;;15.40;100.00;100448.38;5115537;27;20027;-64
2023/05/09 04:35:13;;;;;;;0.90;0.90;;;;;;;15.35;100.00;100449.06;5116518;27;20103;-66
2023/05/09 04:37:39;;;;;;;1.95;0.68;;;;;;;15.35;100.00;100449.06;5117424;27;20122;-64
2023/05/09 04:40:04;;;;;;;3.90;1.50;;;;;;;15.38;100.00;100448.59;5110793;27;20405;-62
2023/05/09 04:42:32;;;;;;;1.45;1.35;;;;;;;15.36;100.00;100448.03;5125726;27;20063;-64
2023/05/09 04:44:58;;;;;;;2.13;1.67;;;;;;;15.27;100.00;100444.00;5114766;27;20049;-64
2023/05/09 04:47:23;;;;;;;2.03;1.83;;;;;;;15.18;100.00;100456.00;5122142;27;20047;-65
2023/05/09 04:49:49;;;;;;;2.15;1.95;;;;;;;15.13;100.00;100447.88;5116681;27;20054;-66
2023/05/09 04:52:14;;;;;;;1.40;1.35;;;;;;;15.18;100.00;100448.84;5112522;27;20042;-66
2023/05/09 04:54:39;;;;;;;5.43;2.17;;;;;;;15.21;100.00;100439.56;5113790;27;20487;-66
2023/05/09 04:57:05;;;;;;;3.67;2.63;;;;;;;15.05;100.00;100433.78;5106729;27;20110;-65
2023/05/09 04:59:31;;;;;;;2.53;1.70;;;;;;;15.19;100.00;100439.78;5118012;27;20122;-66
2023/05/09 05:01:56;;;;;;;1.55;1.45;;;;;;;15.24;100.00;100444.47;5113243;27;20702;-65
2023/05/09 05:04:22;;;;;;;2.35;2.15;;;;;;;15.24;100.00;100431.09;5111916;27;20035;-65
2023/05/09 05:06:47;;;;;;;2.08;1.88;;;;;;;15.22;100.00;100433.19;5119356;27;20046;-65
2023/05/09 05:09:12;;;;;;;5.43;2.30;;;;;;;15.28;100.00;100429.59;5116441;27;20123;-66
2023/05/09 05:11:38;;;;;;;2.13;1.65;;;;;;;15.43;100.00;100427.38;5126098;27;20053;-65
2023/05/09 05:14:03;;;;;;;4.45;2.22;;;;;;;15.45;100.00;100419.16;5122516;27;20464;-65
2023/05/09 05:16:28;;;;;;;2.20;2.10;;;;;;;15.42;100.00;100420.41;5119738;27;20039;-66
2023/05/09 05:18:54;;;;;;;7.32;3.15;;;;;;;15.43;100.00;100410.53;5128232;27;20479;-65
2023/05/09 05:21:19;;;;;;;2.17;1.65;;;;;;;15.51;100.00;100406.75;5119645;27;20081;-66
2023/05/09 05:23:44;;;;;;;3.95;2.72;;;;;;;15.51;100.00;100407.53;5121484;27;20110;-65
2023/05/09 05:26:10;;;;;;;7.00;2.28;;;;;;;15.54;100.00;100403.59;5123272;27;20061;-65
2023/05/09 05:28:35;;;;;;;6.78;2.85;;;;;;;15.67;100.00;100403.47;5123252;27;20031;-66
2023/05/09 05:31:00;;;;;;;2.70;2.50;;;;;;;15.61;100.00;100396.31;5118787;27;20542;-66
2023/05/09 05:33:26;;;;;;;5.70;2.70;;;;;;;15.68;100.00;100400.53;5120989;27;20043;-67
2023/05/09 05:35:51;;;;;;;2.65;2.45;;;;;;;15.77;100.00;100393.03;5125534;27;20046;-65
2023/05/09 05:38:16;;;;;;;2.28;2.05;;;;;;;15.80;100.00;100389.09;5120172;27;20035;-65
2023/05/09 05:40:41;;;;;;;5.45;3.38;;;;;;;15.81;100.00;100391.56;5124280;27;20485;-66
2023/05/09 05:43:07;;;;;;;7.50;3.22;;;;;;;16.03;100.00;100407.06;5119292;27;20032;-66
2023/05/09 05:45:32;;;;;;;3.20;1.73;;;;;;;16.09;100.00;100403.50;5118711;27;20496;-66
2023/05/09 05:47:57;;;;;;;4.13;2.75;;;;;;;16.20;100.00;100402.69;5120127;27;20110;-67
2023/05/09 05:50:23;;;;;;;2.83;2.25;;;;;;;16.26;100.00;100403.63;5123757;27;20038;-65
2023/05/09 05:52:48;;;;;;;3.97;2.88;;;;;;;16.17;100.00;100413.06;5116755;27;20547;-66
2023/05/09 05:55:13;;;;;;;3.30;2.55;;;;;;;16.09;100.00;100409.66;5107104;27;20552;-65
2023/05/09 05:57:39;;;;;;;2.45;2.25;;;;;;;16.08;100.00;100409.88;5127646;27;20105;-66
2023/05/09 06:00:10;;;;;;;2.72;2.55;;;;;;;16.07;100.00;100403.72;5119093;27;20134;-67
2023/05/09 06:02:35;;;;;;;1.83;1.67;;;;;;;16.09;100.00;100406.97;5117833;27;20067;-64
2023/05/09 06:05:02;;;;;;;2.28;1.95;;;;;;;16.09;100.00;100415.00;5114247;27;20438;-65
2023/05/09 06:07:28;;;;;;;3.00;2.22;;;;;;;16.16;100.00;100414.91;5112630;27;20024;-66
2023/05/09 06:09:53;;;;;;;4.20;3.35;;;;;;;16.16;100.00;100409.56;5115204;27;20050;-65
2023/05/09 06:12:18;;;;;;;2.75;2.30;;;;;;;16.16;100.00;100414.91;5113976;27;20055;-65
2023/05/09 06:14:44;;;;;;;2.13;1.88;;;;;;;16.21;100.00;100417.72;5118891;27;20023;-65
2023/05/09 06:17:09;;;;;;;2.50;2.03;;;;;;;16.10;100.00;100421.16;5118386;27;20023;-66
2023/05/09 06:19:35;;;;;;;3.65;3.05;;;;;;;16.13;100.00;100404.66;5118381;27;20027;-66
2023/05/09 06:22:01;;;;;;;2.28;1.77;;;;;;;16.30;100.00;100410.16;5104752;27;20095;-66
2023/05/09 06:24:26;;;;;;;2.38;1.50;;;;;;;16.42;100.00;100408.34;5116461;27;20528;-66
2023/05/09 06:26:51;;;;;;;2.13;1.90;;;;;;;16.56;100.00;100401.69;5120329;27;20123;-67
2023/05/09 06:29:17;;;;;;;3.33;2.30;;;;;;;16.76;100.00;100396.00;5119041;27;20038;-66
2023/05/09 06:31:42;;;;;;;1.83;1.73;;;;;;;16.86;100.00;100397.31;5127689;27;20027;-66
2023/05/09 06:34:08;;;;;;;2.60;2.03;;;;;;;16.78;100.00;100406.50;5117970;27;20023;-65
2023/05/09 06:36:34;;;;;;;3.45;2.53;;;;;;;16.72;100.00;100408.19;5114050;27;20035;-66
2023/05/09 06:39:00;;;;;;;3.08;2.22;;;;;;;16.60;100.00;100404.72;5113589;27;20027;-67
2023/05/09 06:41:25;;;;;;;2.42;2.22;;;;;;;16.66;100.00;100403.78;5104141;27;20031;-66
2023/05/09 06:43:51;;;;;;;2.30;1.88;;;;;;;16.68;100.00;100409.72;5111547;27;20058;-64
2023/05/09 06:46:17;;;;;;;3.25;2.95;;;;;;;16.66;100.00;100409.16;5103230;27;20055;-65
2023/05/09 06:48:42;;;;;;;2.20;2.00;;;;;;;16.64;100.00;100408.56;5111835;27;20047;-66
2023/05/09 06:51:08;;;;;;;5.22;2.30;;;;;;;16.57;100.00;100405.19;5112683;27;20035;-66
2023/05/09 06:53:33;;;;;;;3.85;1.88;;;;;;;16.61;100.00;100413.56;5113780;27;20054;-66
2023/05/09 06:55:58;;;;;;;2.45;2.25;;;;;;;16.72;100.00;100410.88;5114495;27;20034;-65
2023/05/09 06:58:24;;;;;;;4.75;2.90;;;;;;;16.72;100.00;100413.56;5120065;27;20030;-64
2023/05/09 07:00:50;;;;;;;3.38;3.13;;;;;;;16.70;100.00;100421.03;5115569;27;20081;-65
2023/05/09 07:03:15;;;;;;;4.97;3.08;;;;;;;16.73;100.00;100409.84;5116250;27;20084;-64
2023/05/09 07:05:41;;;;;;;5.18;2.92;;;;;;;16.92;100.00;100401.72;5113372;27;20023;-63
2023/05/09 07:08:06;;;;;;;2.00;1.67;;;;;;;16.79;100.00;100400.09;5114779;27;20062;-64
2023/05/09 07:10:31;;;;;;;1.45;1.35;;;;;;;16.78;100.00;100379.75;5113760;27;20101;-63
2023/05/09 07:12:57;;;;;;;1.63;1.52;;;;;;;16.67;100.00;100384.00;5111839;27;20035;-63
2023/05/09 07:15:22;;;;;;;2.55;1.50;;;;;;;16.71;100.00;100379.81;5115551;27;20030;-64
2023/05/09 07:17:48;;;;;;;2.00;0.85;;;;;;;16.76;100.00;100374.56;5113292;27;20051;-63
2023/05/09 07:20:13;;;;;;;4.25;1.55;;;;;;;16.98;100.00;100373.97;5115424;27;20463;-63
2023/05/09 07:22:38;;;;;;;3.50;1.40;;;;;;;16.92;100.00;100374.94;5116448;27;20023;-64
2023/05/09 07:25:06;;;;;;;1.30;1.00;;;;;;;16.99;100.00;100376.44;5117512;27;20425;-63
2023/05/09 07:27:31;;;;;;;1.65;1.17;;;;;;;17.13;100.00;100381.53;5116610;27;20441;-64
2023/05/09 07:29:57;;;;;;;0.85;0.77;;;;;;;17.11;100.00;100383.63;5123830;27;20023;-63
2023/05/09 07:32:22;;;;;;;0.52;0.52;;;;;;;16.97;100.00;100385.75;5122756;27;20060;-64
2023/05/09 07:34:47;;;;;;;5.82;2.00;;;;;;;16.93;100.00;100382.72;5116673;27;20110;-63
2023/05/09 07:37:13;;;;;;;0.60;0.60;;;;;;;17.02;100.00;100385.88;5117719;27;20019;-63
2023/05/09 07:39:38;;;;;;;1.73;0.98;;;;;;;17.00;100.00;100378.06;5113791;27;20031;-63
2023/05/09 07:42:04;;;;;;;2.92;1.15;;;;;;;16.91;100.00;100384.84;5131205;27;20023;-63
2023/05/09 07:44:30;;;;;;;0.95;0.90;;;;;;;17.19;100.00;100389.44;5121794;27;20485;-63
2023/05/09 07:46:57;;;;;;;0.70;0.70;;;;;;;17.33;100.00;100395.34;5113252;27;20159;-63
2023/05/09 07:49:23;;;;;;;1.45;1.23;;;;;;;17.21;100.00;100384.66;5122814;27;20118;-63
2023/05/09 07:51:49;;;;;;;0.57;0.50;;;;;;;17.35;100.00;100389.75;5119426;27;20391;-63
2023/05/09 07:54:14;;;;;;;1.48;1.42;;;;;;;17.39;100.00;100380.19;5120529;27;22309;-63
2023/05/09 07:56:39;;;;;;;1.77;1.60;;;;;;;17.07;100.00;100383.28;5116959;27;20031;-62
2023/05/09 07:59:05;;;;;;;1.83;1.25;;;;;;;17.15;100.00;100364.16;5114277;27;20023;-62
2023/05/09 08:01:30;;;;;;;0.60;0.50;;;;;;;17.36;100.00;100365.38;5118540;27;20042;-63
2023/05/09 08:03:55;;;;;;;0.63;0.55;;;;;;;17.44;100.00;100361.50;5120074;27;20020;-63
2023/05/09 08:06:21;;;;;;;1.38;0.60;;;;;;;17.50;100.00;100365.91;5110861;27;20496;-63
2023/05/09 08:08:46;;;;;;;0.90;0.90;;;;;;;17.60;100.00;100367.97;5111637;27;20031;-63
2023/05/09 08:11:11;;;;;;;1.35;0.73;;;;;;;17.70;100.00;100360.09;5111232;27;20042;-60
2023/05/09 08:13:37;;;;;;;0.95;0.30;;;;;;;17.97;100.00;100357.69;5115873;27;20407;-62
2023/05/09 08:16:02;;;;;;;0.30;0.30;;;;;;;17.93;100.00;100366.44;5125491;27;20119;-62
2023/05/09 08:18:27;;;;;;;3.72;0.98;;;;;;;17.99;100.00;100362.78;5116525;27;20041;-62
2023/05/09 08:20:53;;;;;;;2.78;0.60;;;;;;;17.97;100.00;100360.34;5117070;27;20440;-59
2023/05/09 08:23:18;;;;;;;0.52;0.52;;;;;;;18.08;100.00;100359.47;5111734;27;20048;-62
2023/05/09 08:25:43;;;;;;;0.30;0.30;;;;;;;18.09;100.00;100357.59;5130015;27;20057;-63
2023/05/09 08:28:09;;;;;;;1.60;0.43;;;;;;;18.18;100.00;100358.00;5104380;27;20035;-63
2023/05/09 08:30:34;;;;;;;1.38;0.35;;;;;;;18.24;100.00;100357.81;5103644;27;20028;-64
2023/05/09 08:32:59;;;;;;;1.10;0.22;;;;;;;18.18;100.00;100366.88;5115368;27;20554;-62
2023/05/09 08:35:25;;;;;;;1.45;0.47;;;;;;;18.00;100.00;100362.53;5115569;27;20058;-63
2023/05/09 08:37:50;;;;;;;4.25;0.57;;;;;;;18.02;100.00;100368.50;5111260;27;20503;-62
2023/05/09 08:40:16;;;;;;;1.65;0.55;;;;;;;18.20;100.00;100361.22;5116112;27;20035;-64
2023/05/09 08:42:43;;;;;;;3.70;1.05;;;;;;;18.08;100.00;100370.19;5119282;27;20033;-63
2023/05/09 08:45:10;;;;;;;2.00;0.35;;;;;;;18.08;100.00;100367.50;5115313;27;20058;-63
2023/05/09 08:47:36;;;;;;;0.52;0.30;;;;;;;18.32;100.00;100361.97;5113408;27;20111;-62
2023/05/09 08:50:03;;;;;;;2.03;0.40;;;;;;;18.41;100.00;100367.75;5099830;28;20036;-61
2023/05/09 08:52:32;;;;;;;2.22;0.52;;;;;;;18.44;100.00;100357.34;5112053;27;20046;-63
2023/05/09 08:55:03;;;;;;;1.60;0.57;;;;;;;18.62;100.00;100350.06;5117279;27;20479;-63
2023/05/09 08:57:31;;;;;;;0.40;0.40;;;;;;;18.80;100.00;100344.44;5118982;27;20396;-62
2023/05/09 08:59:57;;;;;;;1.52;0.35;;;;;;;18.82;100.00;100344.16;5122029;27;20113;-63
2023/05/09 09:02:23;;;;;;;3.75;1.38;;;;;;;18.74;100.00;100343.53;5112951;27;20039;-62
2023/05/09 09:04:48;;;;;;;4.63;0.85;;;;;;;18.55;100.00;100350.22;5119611;27;20329;-62
2023/05/09 09:07:14;;;;;;;0.65;0.35;;;;;;;18.55;100.00;100349.44;5119404;27;20035;-62
2023/05/09 09:09:45;;;;;;;0.82;0.50;;;;;;;18.65;100.00;100349.56;5127156;27;20057;-61
2023/05/09 09:12:11;;;;;;;1.65;0.57;;;;;;;18.78;100.00;100343.88;5112271;27;20073;-62
2023/05/09 09:14:45;;;;;;;1.48;0.77;;;;;;;18.83;100.00;100330.50;5117326;27;20468;-61
2023/05/09 09:17:14;;;;;;;0.65;0.20;;;;;;;19.20;100.00;100335.25;5117066;27;20050;-59
2023/05/09 09:19:43;;;;;;;1.48;0.30;;;;;;;18.87;100.00;100331.66;5123191;27;20027;-61
2023/05/09 09:22:12;;;;;;;3.17;0.65;;;;;;;19.06;100.00;100334.81;5119673;27;20383;-62
2023/05/09 09:24:38;;;;;;;1.35;0.15;;;;;;;18.44;100.00;100341.22;5116554;27;20024;-62
2023/05/09 09:27:05;;;;;;;3.33;1.27;;;;;;;18.36;100.00;100336.28;5118773;27;20023;-60
2023/05/09 09:29:32;;;;;;;3.30;0.90;;;;;;;18.32;100.00;100337.81;5118423;27;20024;-61
2023/05/09 09:32:01;;;;;;;0.82;0.40;;;;;;;18.19;100.00;100340.84;5121024;27;20031;-63
2023/05/09 09:34:26;;;;;;;3.42;0.50;;;;;;;18.11;100.00;100341.25;5117160;27;20027;-62
2023/05/09 09:36:52;;;;;;;3.03;0.60;;;;;;;17.84;100.00;100342.72;5112414;27;20035;-61
2023/05/09 09:39:17;;;;;;;2.22;1.38;;;;;;;17.80;100.00;100344.22;5129136;27;20349;-61
2023/05/09 09:41:43;;;;;;;4.90;0.50;;;;;;;17.82;100.00;100344.00;5123255;27;20034;-62
2023/05/09 09:44:10;;;;;;;3.63;0.50;;;;;;;18.15;100.00;100339.69;5122496;27;20038;-61
2023/05/09 09:47:02;;;;;;;6.28;0.98;;;;;;;18.86;100.00;100337.25;5119073;27;20104;-61
2023/05/09 09:49:27;;;;;;;1.08;0.55;;;;;;;18.88;100.00;100338.63;5119245;27;20039;-60
2023/05/09 09:51:54;;;;;;;5.82;0.90;;;;;;;18.88;100.00;100329.75;5119537;27;20364;-59
2023/05/09 09:54:20;;;;;;;2.95;1.08;;;;;;;18.82;100.00;100326.22;5123645;27;20705;-58
2023/05/09 09:56:48;;;;;;;3.13;0.70;;;;;;;18.74;100.00;100321.22;5112522;27;20034;-60
2023/05/09 09:59:16;;;;;;;5.57;0.75;;;;;;;18.62;100.00;100328.59;5115606;27;20372;-60
2023/05/09 10:01:58;;;;;;;3.65;0.63;;;;;;;18.53;100.00;100334.38;5124178;27;20143;-57
2023/05/09 10:04:24;;;;;;;0.57;0.52;;;;;;;18.23;100.00;100329.38;5114539;27;20069;-58
2023/05/09 10:06:54;;;;;;;7.43;1.40;;;;;;;18.21;100.00;100323.44;5117703;27;20619;-59
2023/05/09 10:09:22;;;;;;;2.85;0.90;;;;;;;18.29;100.00;100328.38;5117532;27;20031;-61
2023/05/09 10:11:50;;;;;;;1.45;0.40;;;;;;;18.27;100.00;100318.94;5122081;27;20034;-59
2023/05/09 10:14:17;;;;;;;1.98;0.80;;;;;;;18.31;100.00;100318.22;5096440;27;20531;-61
2023/05/09 10:16:43;;;;;;;3.08;0.57;;;;;;;18.52;100.00;100316.63;5118608;27;20312;-59
2023/05/09 10:19:10;;;;;;;2.13;0.80;;;;;;;18.66;100.00;100317.09;5114008;27;20032;-61
2023/05/09 10:21:38;;;;;;;3.38;0.43;;;;;;;19.02;100.00;100308.69;5115474;27;20039;-61
2023/05/09 10:24:04;;;;;;;3.72;0.50;;;;;;;19.38;100.00;100309.91;5127658;27;20030;-58
2023/05/09 10:26:36;;;;;;;5.47;1.20;;;;;;;19.52;100.00;100313.81;5114001;27;20230;-59
2023/05/09 10:29:07;;;;;;;3.78;1.05;;;;;;;19.45;100.00;100304.31;5119227;27;20038;-60
2023/05/09 10:31:36;;;;;;;1.50;0.50;;;;;;;19.70;100.00;100301.09;5113959;27;20023;-59
2023/05/09 10:34:08;;;;;;;2.60;1.20;;;;;;;19.75;100.00;100293.88;5120089;27;20267;-60
2023/05/09 10:36:33;;;;;;;2.58;0.85;;;;;;;20.15;100.00;100289.88;5119715;27;20427;-56
2023/05/09 10:39:00;;;;;;;5.43;0.40;;;;;;;20.21;100.00;100288.00;5125998;27;20024;-59
2023/05/09 10:41:25;;;;;;;5.03;1.00;;;;;;;20.06;100.00;100280.66;5126264;27;20022;-58
2023/05/09 10:43:55;;;;;;;1.67;0.40;;;;;;;20.00;100.00;100279.78;5116452;27;20039;-59
2023/05/09 10:46:22;;;;;;;3.15;0.85;;;;;;;19.86;100.00;100277.81;5113230;27;20039;-62
2023/05/09 10:48:48;;;;;;;6.85;0.82;;;;;;;19.46;100.00;100276.38;5121384;27;20027;-62
2023/05/09 10:51:13;;;;;;;2.00;0.25;;;;;;;19.34;100.00;100277.34;5121995;27;20060;-61
2023/05/09 10:53:47;;;;;;;4.03;0.68;;;;;;;19.18;100.00;100280.94;5113731;27;20126;-60
2023/05/09 10:56:32;;;;;;;1.17;0.47;;;;;;;19.26;100.00;100279.66;5116043;27;20064;-59
2023/05/09 10:58:58;;;;;;;2.60;0.47;;;;;;;19.40;100.00;100278.19;5110318;27;20551;-61
2023/05/09 11:01:29;;;;;;;1.67;0.65;;;;;;;19.21;100.00;100266.19;5115579;27;20383;-60
2023/05/09 11:03:57;;;;;;;3.03;1.17;;;;;;;19.55;100.00;100267.59;5094973;27;20027;-59
2023/05/09 11:06:41;;;;;;;1.83;0.40;;;;;;;19.91;100.00;100253.66;5106012;27;20088;-58
2023/05/09 11:09:34;;;;;;;0.90;0.32;;;;;;;20.33;100.00;100244.75;5119930;27;20479;-60
2023/05/09 11:12:20;;;;;;;3.50;0.88;;;;;;;20.52;100.00;100245.91;5119470;27;20031;-59
2023/05/09 11:14:47;;;;;;;1.60;0.38;;;;;;;20.44;100.00;100251.81;5121072;27;20043;-59